sensor_id;sensor_type;location;lat;lon;timestamp;P1;durP1;ratioP1;P2;durP2;ratioP2
20721;SDS011;10522;52.198;9.890;2023-08-17T03:22:19;11.43;;;5.57;;
20721;SDS011;10522;52.198;9.890;2023-08-17T03:24:48;9.27;;;4.93;;
20721;SDS011;10522;52.198;9.890;2023-08-17T03:27:29;8.97;;;4.60;;
20721;SDS011;10522;52.198;9.890;2023-08-17T03:29:55;8.40;;;4.53;;
20721;SDS011;10522;52.198;9.890;2023-08-17T03:32:25;8.43;;;4.43;;
20721;SDS011;10522;52.198;9.890;2023-08-17T03:34:50;6.77;;;3.97;;
20721;SDS011;10522;52.198;9.890;2023-08-17T03:37:16;5.20;;;4.17;;
20721;SDS011;10522;52.198;9.890;2023-08-17T03:39:42;4.67;;;3.80;;
20721;SDS011;10522;52.198;9.890;2023-08-17T03:42:07;7.67;;;3.87;;
20721;SDS011;10522;52.198;9.890;2023-08-17T03:44:33;9.23;;;4.00;;
20721;SDS011;10522;52.198;9.890;2023-08-17T03:46:59;7.93;;;4.13;;
20721;SDS011;10522;52.198;9.890;2023-08-17T03:49:24;6.83;;;4.20;;
20721;SDS011;10522;52.198;9.890;2023-08-17T03:51:50;3.27;;;2.97;;
20721;SDS011;10522;52.198;9.890;2023-08-17T03:54:16;6.87;;;3.83;;
20721;SDS011;10522;52.198;9.890;2023-08-17T03:56:42;8.10;;;4.50;;
20721;SDS011;10522;52.198;9.890;2023-08-17T03:59:08;5.63;;;3.43;;
20721;SDS011;10522;52.198;9.890;2023-08-17T04:01:34;7.50;;;4.23;;
20721;SDS011;10522;52.198;9.890;2023-08-17T04:03:59;5.27;;;3.63;;
20721;SDS011;10522;52.198;9.890;2023-08-17T04:06:26;4.10;;;3.37;;
20721;SDS011;10522;52.198;9.890;2023-08-17T04:08:52;4.63;;;3.40;;
20721;SDS011;10522;52.198;9.890;2023-08-17T04:11:18;4.47;;;4.07;;
20721;SDS011;10522;52.198;9.890;2023-08-17T04:13:43;7.50;;;4.07;;
20721;SDS011;10522;52.198;9.890;2023-08-17T04:16:09;6.27;;;4.10;;
20721;SDS011;10522;52.198;9.890;2023-08-17T04:18:35;5.57;;;3.53;;
20721;SDS011;10522;52.198;9.890;2023-08-17T04:21:01;4.57;;;3.70;;
20721;SDS011;10522;52.198;9.890;2023-08-17T04:23:27;5.33;;;4.10;;
20721;SDS011;10522;52.198;9.890;2023-08-17T04:28:37;5.07;;;4.10;;
20721;SDS011;10522;52.198;9.890;2023-08-17T04:31:03;4.37;;;3.87;;
20721;SDS011;10522;52.198;9.890;2023-08-17T04:33:29;5.70;;;4.20;;
20721;SDS011;10522;52.198;9.890;2023-08-17T04:35:56;5.63;;;4.93;;
20721;SDS011;10522;52.198;9.890;2023-08-17T04:38:26;5.70;;;4.70;;
20721;SDS011;10522;52.198;9.890;2023-08-17T04:40:52;6.47;;;4.87;;
20721;SDS011;10522;52.198;9.890;2023-08-17T04:43:19;5.43;;;4.43;;
20721;SDS011;10522;52.198;9.890;2023-08-17T04:45:45;7.07;;;5.30;;
20721;SDS011;10522;52.198;9.890;2023-08-17T04:48:12;9.67;;;5.37;;
20721;SDS011;10522;52.198;9.890;2023-08-17T04:50:39;6.73;;;4.93;;
20721;SDS011;10522;52.198;9.890;2023-08-17T04:53:11;5.87;;;5.00;;
20721;SDS011;10522;52.198;9.890;2023-08-17T04:55:37;5.40;;;4.90;;
20721;SDS011;10522;52.198;9.890;2023-08-17T04:58:06;8.73;;;4.70;;
20721;SDS011;10522;52.198;9.890;2023-08-17T05:00:31;8.93;;;5.57;;
20721;SDS011;10522;52.198;9.890;2023-08-17T05:02:58;7.10;;;4.50;;
20721;SDS011;10522;52.198;9.890;2023-08-17T05:05:24;5.90;;;5.03;;
20721;SDS011;10522;52.198;9.890;2023-08-17T05:07:52;8.40;;;4.83;;
20721;SDS011;10522;52.198;9.890;2023-08-17T05:10:19;12.00;;;6.40;;
20721;SDS011;10522;52.198;9.890;2023-08-17T12:02:04;11.83;;;6.87;;
20721;SDS011;10522;52.198;9.890;2023-08-17T12:04:32;11.37;;;7.40;;
20721;SDS011;10522;52.198;9.890;2023-08-17T12:07:16;12.27;;;7.30;;
20721;SDS011;10522;52.198;9.890;2023-08-17T12:09:43;11.70;;;7.83;;
20721;SDS011;10522;52.198;9.890;2023-08-17T12:12:09;13.07;;;7.33;;
20721;SDS011;10522;52.198;9.890;2023-08-17T12:14:42;12.90;;;7.57;;
20721;SDS011;10522;52.198;9.890;2023-08-17T12:17:29;8.40;;;6.50;;
20721;SDS011;10522;52.198;9.890;2023-08-17T12:19:58;8.80;;;6.53;;
20721;SDS011;10522;52.198;9.890;2023-08-17T12:22:40;11.93;;;7.40;;
20721;SDS011;10522;52.198;9.890;2023-08-17T12:25:24;11.13;;;6.53;;
20721;SDS011;10522;52.198;9.890;2023-08-17T12:27:54;10.67;;;7.20;;
20721;SDS011;10522;52.198;9.890;2023-08-17T12:30:30;11.33;;;7.37;;
20721;SDS011;10522;52.198;9.890;2023-08-17T12:33:05;8.43;;;6.40;;
20721;SDS011;10522;52.198;9.890;2023-08-17T12:35:42;10.17;;;6.90;;
20721;SDS011;10522;52.198;9.890;2023-08-17T12:38:08;10.37;;;6.63;;
20721;SDS011;10522;52.198;9.890;2023-08-17T12:40:33;10.17;;;7.50;;
20721;SDS011;10522;52.198;9.890;2023-08-17T12:42:59;9.83;;;7.10;;
20721;SDS011;10522;52.198;9.890;2023-08-17T12:45:28;9.27;;;7.27;;
20721;SDS011;10522;52.198;9.890;2023-08-17T12:47:57;8.97;;;6.87;;
20721;SDS011;10522;52.198;9.890;2023-08-17T12:50:24;9.37;;;6.73;;
20721;SDS011;10522;52.198;9.890;2023-08-17T12:52:50;11.27;;;6.97;;
20721;SDS011;10522;52.198;9.890;2023-08-17T12:55:15;10.70;;;6.27;;
20721;SDS011;10522;52.198;9.890;2023-08-17T12:57:41;9.17;;;6.00;;
20721;SDS011;10522;52.198;9.890;2023-08-17T13:00:20;10.27;;;6.33;;
20721;SDS011;10522;52.198;9.890;2023-08-17T13:02:51;10.03;;;5.97;;
20721;SDS011;10522;52.198;9.890;2023-08-17T13:05:36;8.70;;;6.23;;
20721;SDS011;10522;52.198;9.890;2023-08-17T13:08:14;7.77;;;6.57;;
20721;SDS011;10522;52.198;9.890;2023-08-17T13:10:40;10.00;;;5.87;;
20721;SDS011;10522;52.198;9.890;2023-08-17T13:13:06;9.83;;;6.53;;
20721;SDS011;10522;52.198;9.890;2023-08-17T13:15:47;12.13;;;6.30;;
20721;SDS011;10522;52.198;9.890;2023-08-17T13:18:40;10.53;;;6.83;;
20721;SDS011;10522;52.198;9.890;2023-08-17T13:21:06;12.17;;;6.47;;
20721;SDS011;10522;52.198;9.890;2023-08-17T13:23:41;10.67;;;6.53;;
20721;SDS011;10522;52.198;9.890;2023-08-17T13:26:11;10.57;;;6.67;;
20721;SDS011;10522;52.198;9.890;2023-08-17T13:28:37;9.93;;;6.00;;
20721;SDS011;10522;52.198;9.890;2023-08-17T13:31:05;10.90;;;6.97;;
20721;SDS011;10522;52.198;9.890;2023-08-17T13:33:32;12.87;;;7.13;;
20721;SDS011;10522;52.198;9.890;2023-08-17T13:35:58;15.93;;;7.10;;
20721;SDS011;10522;52.198;9.890;2023-08-17T13:38:24;13.10;;;7.80;;
20721;SDS011;10522;52.198;9.890;2023-08-17T13:40:50;13.73;;;7.53;;
20721;SDS011;10522;52.198;9.890;2023-08-17T13:43:15;12.30;;;7.23;;
20721;SDS011;10522;52.198;9.890;2023-08-17T13:45:41;14.17;;;8.07;;
20721;SDS011;10522;52.198;9.890;2023-08-17T13:48:07;14.27;;;7.40;;
20721;SDS011;10522;52.198;9.890;2023-08-17T13:50:33;12.20;;;7.47;;
20721;SDS011;10522;52.198;9.890;2023-08-17T13:52:59;11.03;;;6.90;;
20721;SDS011;10522;52.198;9.890;2023-08-17T13:55:26;12.53;;;6.87;;
20721;SDS011;10522;52.198;9.890;2023-08-17T13:57:53;16.03;;;8.20;;
20721;SDS011;10522;52.198;9.890;2023-08-17T14:00:20;14.37;;;8.00;;
20721;SDS011;10522;52.198;9.890;2023-08-17T14:02:46;18.10;;;8.13;;
20721;SDS011;10522;52.198;9.890;2023-08-17T14:05:11;15.93;;;7.73;;
20721;SDS011;10522;52.198;9.890;2023-08-17T14:07:37;17.70;;;8.47;;
20721;SDS011;10522;52.198;9.890;2023-08-17T14:10:03;15.50;;;8.60;;
20721;SDS011;10522;52.198;9.890;2023-08-17T14:12:29;16.50;;;9.23;;
20721;SDS011;10522;52.198;9.890;2023-08-17T14:14:55;15.23;;;9.37;;
20721;SDS011;10522;52.198;9.890;2023-08-17T14:17:21;16.40;;;9.17;;
20721;SDS011;10522;52.198;9.890;2023-08-17T14:19:46;17.97;;;9.73;;
20721;SDS011;10522;52.198;9.890;2023-08-17T14:22:12;16.00;;;8.30;;
20721;SDS011;10522;52.198;9.890;2023-08-17T14:24:38;17.70;;;10.10;;
20721;SDS011;10522;52.198;9.890;2023-08-17T14:27:04;31.13;;;10.57;;
20721;SDS011;10522;52.198;9.890;2023-08-17T14:29:29;18.00;;;9.83;;
20721;SDS011;10522;52.198;9.890;2023-08-17T14:31:55;16.63;;;9.83;;
20721;SDS011;10522;52.198;9.890;2023-08-17T14:34:21;21.67;;;10.07;;
20721;SDS011;10522;52.198;9.890;2023-08-17T14:36:46;16.87;;;9.97;;
20721;SDS011;10522;52.198;9.890;2023-08-17T14:39:12;14.80;;;9.73;;
20721;SDS011;10522;52.198;9.890;2023-08-17T14:41:38;19.37;;;9.97;;
20721;SDS011;10522;52.198;9.890;2023-08-17T14:44:04;18.90;;;10.07;;
20721;SDS011;10522;52.198;9.890;2023-08-17T14:46:30;18.30;;;9.70;;
20721;SDS011;10522;52.198;9.890;2023-08-17T14:48:56;16.47;;;8.83;;
20721;SDS011;10522;52.198;9.890;2023-08-17T14:51:23;19.10;;;10.37;;
20721;SDS011;10522;52.198;9.890;2023-08-17T14:53:49;18.67;;;10.53;;
20721;SDS011;10522;52.198;9.890;2023-08-17T14:56:14;22.00;;;10.50;;
20721;SDS011;10522;52.198;9.890;2023-08-17T14:58:40;18.80;;;10.57;;
20721;SDS011;10522;52.198;9.890;2023-08-17T15:01:06;18.57;;;10.73;;
20721;SDS011;10522;52.198;9.890;2023-08-17T15:03:31;20.37;;;10.33;;
20721;SDS011;10522;52.198;9.890;2023-08-17T15:05:57;22.27;;;10.10;;
20721;SDS011;10522;52.198;9.890;2023-08-17T15:08:23;17.23;;;10.60;;
20721;SDS011;10522;52.198;9.890;2023-08-17T15:10:48;19.90;;;9.87;;
20721;SDS011;10522;52.198;9.890;2023-08-17T15:13:14;18.50;;;10.00;;
20721;SDS011;10522;52.198;9.890;2023-08-17T15:15:40;16.87;;;9.57;;
20721;SDS011;10522;52.198;9.890;2023-08-17T15:18:11;22.70;;;10.57;;
20721;SDS011;10522;52.198;9.890;2023-08-17T15:20:39;18.20;;;10.10;;
20721;SDS011;10522;52.198;9.890;2023-08-17T15:23:05;17.97;;;10.00;;
20721;SDS011;10522;52.198;9.890;2023-08-17T15:25:31;17.93;;;10.03;;
20721;SDS011;10522;52.198;9.890;2023-08-17T15:27:57;21.23;;;10.93;;
20721;SDS011;10522;52.198;9.890;2023-08-17T15:30:23;15.83;;;9.77;;
20721;SDS011;10522;52.198;9.890;2023-08-17T15:32:48;17.37;;;9.53;;
20721;SDS011;10522;52.198;9.890;2023-08-17T15:35:18;17.57;;;10.13;;
20721;SDS011;10522;52.198;9.890;2023-08-17T15:37:44;19.57;;;11.07;;
20721;SDS011;10522;52.198;9.890;2023-08-17T15:40:10;16.70;;;9.57;;
20721;SDS011;10522;52.198;9.890;2023-08-17T15:42:37;17.33;;;9.63;;
20721;SDS011;10522;52.198;9.890;2023-08-17T15:45:04;15.67;;;9.67;;
20721;SDS011;10522;52.198;9.890;2023-08-17T15:47:30;20.07;;;10.60;;
20721;SDS011;10522;52.198;9.890;2023-08-17T15:49:56;20.27;;;10.40;;
20721;SDS011;10522;52.198;9.890;2023-08-17T15:52:22;21.10;;;10.33;;
20721;SDS011;10522;52.198;9.890;2023-08-17T15:54:48;23.97;;;10.07;;
20721;SDS011;10522;52.198;9.890;2023-08-17T15:57:13;16.60;;;9.93;;
20721;SDS011;10522;52.198;9.890;2023-08-17T15:59:40;19.37;;;11.27;;
20721;SDS011;10522;52.198;9.890;2023-08-17T16:02:06;17.93;;;9.80;;
20721;SDS011;10522;52.198;9.890;2023-08-17T16:04:32;16.90;;;9.87;;
20721;SDS011;10522;52.198;9.890;2023-08-17T16:07:02;18.17;;;10.37;;
20721;SDS011;10522;52.198;9.890;2023-08-17T16:09:28;20.53;;;10.70;;
20721;SDS011;10522;52.198;9.890;2023-08-17T16:11:54;18.17;;;10.50;;
20721;SDS011;10522;52.198;9.890;2023-08-17T16:14:20;19.67;;;10.07;;
20721;SDS011;10522;52.198;9.890;2023-08-17T16:16:45;17.63;;;10.30;;
20721;SDS011;10522;52.198;9.890;2023-08-17T16:19:11;17.30;;;10.43;;
20721;SDS011;10522;52.198;9.890;2023-08-17T16:21:37;18.60;;;9.50;;
20721;SDS011;10522;52.198;9.890;2023-08-17T16:24:04;16.00;;;8.83;;
20721;SDS011;10522;52.198;9.890;2023-08-17T16:26:30;20.10;;;10.23;;
20721;SDS011;10522;52.198;9.890;2023-08-17T16:28:55;19.63;;;9.63;;
20721;SDS011;10522;52.198;9.890;2023-08-17T16:31:21;16.37;;;9.40;;
20721;SDS011;10522;52.198;9.890;2023-08-17T16:33:46;18.80;;;9.00;;
20721;SDS011;10522;52.198;9.890;2023-08-17T16:36:12;19.07;;;10.07;;
20721;SDS011;10522;52.198;9.890;2023-08-17T16:38:38;14.93;;;9.07;;
20721;SDS011;10522;52.198;9.890;2023-08-17T16:41:04;17.20;;;9.23;;
20721;SDS011;10522;52.198;9.890;2023-08-17T16:43:30;16.70;;;9.10;;
20721;SDS011;10522;52.198;9.890;2023-08-17T16:45:56;16.43;;;9.07;;
20721;SDS011;10522;52.198;9.890;2023-08-17T16:48:22;17.83;;;9.90;;
20721;SDS011;10522;52.198;9.890;2023-08-17T16:50:47;16.23;;;9.20;;
20721;SDS011;10522;52.198;9.890;2023-08-17T16:53:13;15.90;;;9.57;;
20721;SDS011;10522;52.198;9.890;2023-08-17T16:55:39;16.57;;;9.23;;
20721;SDS011;10522;52.198;9.890;2023-08-17T16:58:14;17.63;;;9.40;;
20721;SDS011;10522;52.198;9.890;2023-08-17T17:00:43;18.60;;;9.40;;
20721;SDS011;10522;52.198;9.890;2023-08-17T17:06:25;12.30;;;8.33;;
20721;SDS011;10522;52.198;9.890;2023-08-17T17:09:12;14.93;;;9.07;;
20721;SDS011;10522;52.198;9.890;2023-08-17T17:11:40;19.60;;;10.40;;
20721;SDS011;10522;52.198;9.890;2023-08-17T17:18:04;18.87;;;10.03;;
20721;SDS011;10522;52.198;9.890;2023-08-17T17:20:55;15.63;;;9.53;;
20721;SDS011;10522;52.198;9.890;2023-08-17T17:23:31;17.23;;;9.17;;
20721;SDS011;10522;52.198;9.890;2023-08-17T17:26:05;15.33;;;9.27;;
20721;SDS011;10522;52.198;9.890;2023-08-17T17:28:55;19.37;;;9.23;;
20721;SDS011;10522;52.198;9.890;2023-08-17T17:31:26;14.53;;;8.83;;
20721;SDS011;10522;52.198;9.890;2023-08-17T17:33:54;17.40;;;9.63;;
20721;SDS011;10522;52.198;9.890;2023-08-17T17:36:20;18.20;;;9.53;;
20721;SDS011;10522;52.198;9.890;2023-08-17T17:38:46;19.37;;;9.67;;
20721;SDS011;10522;52.198;9.890;2023-08-17T17:41:11;21.03;;;10.93;;
20721;SDS011;10522;52.198;9.890;2023-08-17T17:47:05;21.07;;;10.83;;
20721;SDS011;10522;52.198;9.890;2023-08-17T17:50:04;19.87;;;9.57;;
20721;SDS011;10522;52.198;9.890;2023-08-17T17:52:32;18.07;;;9.97;;
20721;SDS011;10522;52.198;9.890;2023-08-17T17:54:58;16.03;;;9.50;;
20721;SDS011;10522;52.198;9.890;2023-08-17T17:57:24;16.77;;;8.87;;
20721;SDS011;10522;52.198;9.890;2023-08-17T17:59:52;18.00;;;10.20;;
20721;SDS011;10522;52.198;9.890;2023-08-17T18:02:23;20.00;;;9.57;;
20721;SDS011;10522;52.198;9.890;2023-08-17T18:04:50;19.13;;;9.60;;
20721;SDS011;10522;52.198;9.890;2023-08-17T18:07:19;19.20;;;10.17;;
20721;SDS011;10522;52.198;9.890;2023-08-17T18:09:54;20.03;;;10.77;;
20721;SDS011;10522;52.198;9.890;2023-08-17T18:12:24;17.90;;;9.70;;
20721;SDS011;10522;52.198;9.890;2023-08-17T18:14:51;21.70;;;9.57;;
20721;SDS011;10522;52.198;9.890;2023-08-17T18:17:18;21.47;;;10.30;;
20721;SDS011;10522;52.198;9.890;2023-08-17T18:19:47;16.03;;;9.70;;
20721;SDS011;10522;52.198;9.890;2023-08-17T18:22:15;20.43;;;10.77;;
20721;SDS011;10522;52.198;9.890;2023-08-17T18:24:41;18.97;;;9.27;;
20721;SDS011;10522;52.198;9.890;2023-08-17T18:27:09;23.60;;;11.80;;
20721;SDS011;10522;52.198;9.890;2023-08-17T18:29:41;18.73;;;9.33;;
20721;SDS011;10522;52.198;9.890;2023-08-17T18:32:13;18.57;;;9.50;;
20721;SDS011;10522;52.198;9.890;2023-08-17T18:34:44;15.93;;;8.90;;
20721;SDS011;10522;52.198;9.890;2023-08-17T18:37:17;22.20;;;10.23;;
20721;SDS011;10522;52.198;9.890;2023-08-17T18:39:43;19.20;;;9.73;;
20721;SDS011;10522;52.198;9.890;2023-08-17T18:42:16;20.43;;;9.50;;
20721;SDS011;10522;52.198;9.890;2023-08-17T18:44:42;17.63;;;9.17;;
20721;SDS011;10522;52.198;9.890;2023-08-17T18:47:08;22.33;;;10.50;;
20721;SDS011;10522;52.198;9.890;2023-08-17T18:49:33;18.83;;;9.60;;
20721;SDS011;10522;52.198;9.890;2023-08-17T18:51:59;22.57;;;9.60;;
20721;SDS011;10522;52.198;9.890;2023-08-17T18:54:25;21.50;;;9.13;;
20721;SDS011;10522;52.198;9.890;2023-08-17T18:56:52;18.30;;;9.40;;
20721;SDS011;10522;52.198;9.890;2023-08-17T18:59:18;20.50;;;8.93;;
20721;SDS011;10522;52.198;9.890;2023-08-17T19:01:53;23.00;;;9.37;;
20721;SDS011;10522;52.198;9.890;2023-08-17T19:12:01;13.33;;;8.07;;
20721;SDS011;10522;52.198;9.890;2023-08-17T19:18:18;16.10;;;8.40;;
20721;SDS011;10522;52.198;9.890;2023-08-17T19:23:28;11.00;;;6.50;;
